Time;durP1;ratioP1;P1;durP2;ratioP2;P2;SDS_P1;SDS_P2;PMS_P1;PMS_P2;Temp;Humidity;BMP_temperature;BMP_pressure;BME280_temperature;BME280_humidity;BME280_pressure;Samples;Min_cycle;Max_cycle;Signal;HPM_P1;HPM_P2
2023/05/24 00:01:29;;;;;;;8.10;2.83;;;11.60;93.70;;;;;;5054965;28;20036;-82
2023/05/24 00:03:57;;;;;;;9.45;2.53;;;11.60;93.50;;;;;;5073583;28;20025;-83
2023/05/24 00:06:27;;;;;;;9.85;3.20;;;11.60;93.60;;;;;;5061836;28;20037;-82
2023/05/24 00:08:53;;;;;;;11.68;3.08;;;11.60;93.60;;;;;;5062630;28;20035;-82
2023/05/24 00:11:20;;;;;;;9.55;2.90;;;11.70;93.60;;;;;;5069026;28;20040;-83
2023/05/24 00:13:47;;;;;;;9.07;2.45;;;11.70;93.60;;;;;;5075703;28;20472;-83
2023/05/24 00:16:13;;;;;;;10.48;2.78;;;11.70;93.70;;;;;;5075832;28;20036;-84
2023/05/24 00:18:39;;;;;;;10.27;3.00;;;11.70;93.80;;;;;;5070563;28;20040;-83
2023/05/24 00:21:09;;;;;;;9.85;3.25;;;11.60;93.80;;;;;;5072440;28;20255;-83
2023/05/24 00:23:38;;;;;;;10.82;2.88;;;11.60;93.80;;;;;;5055295;28;20156;-83
2023/05/24 00:26:07;;;;;;;8.52;2.65;;;11.60;93.90;;;;;;5066276;28;20032;-83
2023/05/24 00:28:34;;;;;;;8.25;2.72;;;11.50;94.00;;;;;;5051821;28;20048;-82
2023/05/24 00:31:00;;;;;;;12.63;3.50;;;11.50;94.10;;;;;;5043087;28;20473;-83
2023/05/24 00:33:26;;;;;;;13.13;2.97;;;11.60;94.20;;;;;;5055048;28;20045;-83
2023/05/24 00:35:55;;;;;;;8.60;2.85;;;11.50;94.20;;;;;;5056767;28;20033;-83
2023/05/24 00:38:25;;;;;;;8.70;2.60;;;11.50;94.30;;;;;;5071776;28;20033;-83
2023/05/24 00:40:51;;;;;;;9.32;2.85;;;11.50;94.50;;;;;;5068580;28;20116;-83
2023/05/24 00:43:18;;;;;;;9.85;3.22;;;11.40;94.50;;;;;;5050536;28;20128;-83
2023/05/24 00:45:44;;;;;;;7.93;3.03;;;11.40;94.70;;;;;;5052272;28;20028;-83
2023/05/24 00:48:10;;;;;;;13.45;2.65;;;11.30;94.80;;;;;;5052613;28;20037;-82
2023/05/24 00:50:39;;;;;;;7.57;2.55;;;11.30;94.90;;;;;;5054631;28;20061;-83
2023/05/24 00:53:06;;;;;;;9.35;2.50;;;11.30;95.00;;;;;;5069517;28;20023;-83
2023/05/24 00:55:34;;;;;;;9.60;2.58;;;11.30;95.00;;;;;;5079771;28;20124;-83
2023/05/24 00:58:00;;;;;;;10.77;2.80;;;11.20;95.10;;;;;;5077344;28;20552;-83
2023/05/24 01:00:29;;;;;;;10.38;3.03;;;11.20;95.10;;;;;;5082560;28;20065;-82
2023/05/24 01:02:55;;;;;;;11.25;2.58;;;11.10;95.20;;;;;;5072315;28;20017;-83
2023/05/24 01:05:22;;;;;;;9.40;2.95;;;11.10;95.30;;;;;;5115602;28;20004;-83
2023/05/24 01:08:08;;;;;;;9.70;2.75;;;11.00;95.40;;;;;;5097845;28;20022;-83
2023/05/24 01:10:47;;;;;;;12.77;3.50;;;11.00;95.50;;;;;;5099154;28;20021;-82
2023/05/24 01:13:31;;;;;;;9.05;2.75;;;10.90;95.60;;;;;;5070929;28;20025;-83
2023/05/24 01:16:18;;;;;;;6.82;2.33;;;10.90;95.70;;;;;;5074278;28;20476;-83
2023/05/24 01:18:51;;;;;;;11.48;2.60;;;10.80;95.70;;;;;;5070687;28;20031;-83
2023/05/24 01:21:17;;;;;;;10.48;2.88;;;10.80;95.80;;;;;;5060546;28;20041;-83
2023/05/24 01:24:01;;;;;;;8.70;2.53;;;10.80;95.80;;;;;;5060975;28;20039;-83
2023/05/24 01:27:03;;;;;;;9.05;2.50;;;10.80;95.90;;;;;;5068693;28;20396;-85
2023/05/24 01:29:31;;;;;;;7.38;2.22;;;10.80;96.00;;;;;;5070531;28;20028;-83
2023/05/24 01:31:57;;;;;;;9.20;3.17;;;10.80;96.00;;;;;;5045942;28;20036;-83
2023/05/24 01:34:25;;;;;;;8.25;2.58;;;10.70;96.00;;;;;;5056031;28;20335;-82
2023/05/24 01:36:50;;;;;;;9.55;2.85;;;10.60;96.10;;;;;;5071592;28;20025;-82
2023/05/24 01:39:20;;;;;;;8.23;2.78;;;10.60;96.20;;;;;;5044608;28;20033;-83
2023/05/24 01:42:17;;;;;;;9.95;2.30;;;10.60;96.20;;;;;;5052413;28;20093;-83
2023/05/24 01:44:57;;;;;;;8.40;2.80;;;10.50;96.30;;;;;;5052401;28;20112;-83
2023/05/24 01:47:26;;;;;;;8.68;2.55;;;10.50;96.30;;;;;;5057149;28;20091;-82
2023/05/24 01:49:56;;;;;;;9.40;2.72;;;10.50;96.30;;;;;;5052382;28;20056;-83
2023/05/24 01:52:26;;;;;;;11.43;3.00;;;10.40;96.40;;;;;;5068571;28;20031;-83
2023/05/24 01:54:53;;;;;;;8.93;2.85;;;10.40;96.40;;;;;;5072391;28;20464;-83
2023/05/24 01:57:21;;;;;;;11.13;2.35;;;10.40;96.50;;;;;;5071748;28;20074;-83
2023/05/24 01:59:47;;;;;;;10.32;2.70;;;10.40;96.60;;;;;;5070442;28;20029;-82
2023/05/24 02:02:12;;;;;;;8.18;2.80;;;10.30;96.60;;;;;;5055033;28;20025;-83
2023/05/24 02:04:38;;;;;;;9.95;2.60;;;10.30;96.70;;;;;;5060975;28;20033;-83
2023/05/24 02:07:05;;;;;;;10.70;2.65;;;10.30;96.70;;;;;;5035179;28;20029;-82
2023/05/24 02:09:31;;;;;;;8.38;2.53;;;10.30;96.80;;;;;;5050278;28;20032;-82
2023/05/24 02:11:56;;;;;;;6.13;2.42;;;10.30;96.80;;;;;;5056645;28;20387;-82
2023/05/24 02:14:23;;;;;;;8.18;2.42;;;10.30;96.70;;;;;;5058365;28;20105;-82
2023/05/24 02:16:49;;;;;;;8.32;2.88;;;10.20;96.70;;;;;;5067093;28;20031;-82
2023/05/24 02:19:18;;;;;;;7.65;2.70;;;10.20;96.70;;;;;;5058278;28;20037;-82
2023/05/24 02:21:44;;;;;;;9.02;2.83;;;10.20;96.80;;;;;;5061437;28;20043;-82
2023/05/24 02:24:13;;;;;;;8.23;2.38;;;10.10;96.80;;;;;;5042173;28;20124;-82
2023/05/24 02:26:39;;;;;;;7.60;2.47;;;10.10;96.90;;;;;;5050890;28;20036;-83
2023/05/24 02:29:05;;;;;;;10.15;2.88;;;10.10;96.90;;;;;;5055463;28;20036;-83
2023/05/24 02:31:31;;;;;;;9.07;3.13;;;10.00;97.00;;;;;;5073154;28;20059;-83
2023/05/24 02:33:57;;;;;;;8.40;2.75;;;10.00;97.10;;;;;;5052088;28;20049;-83
2023/05/24 02:36:23;;;;;;;9.10;2.80;;;10.00;97.10;;;;;;5065534;28;20025;-83
2023/05/24 02:38:52;;;;;;;8.52;2.90;;;10.00;97.10;;;;;;5094837;28;20029;-83
2023/05/24 02:41:18;;;;;;;10.02;2.72;;;10.00;97.20;;;;;;5092973;28;20029;-83
2023/05/24 02:43:45;;;;;;;10.70;3.05;;;10.00;97.20;;;;;;5101635;28;20098;-82
2023/05/24 02:46:10;;;;;;;7.70;3.30;;;10.00;97.20;;;;;;5083603;28;20013;-83
2023/05/24 02:48:36;;;;;;;8.15;3.17;;;9.90;97.20;;;;;;5047407;28;20032;-83
2023/05/24 02:51:02;;;;;;;6.43;2.88;;;10.00;97.30;;;;;;5075474;28;20072;-83
2023/05/24 02:53:31;;;;;;;8.43;2.67;;;9.90;97.40;;;;;;5058036;28;20354;-83
2023/05/24 02:55:58;;;;;;;6.95;2.33;;;9.90;97.40;;;;;;5040551;28;20079;-83
2023/05/24 02:58:24;;;;;;;7.28;2.70;;;9.90;97.40;;;;;;5054471;28;20029;-83
2023/05/24 03:00:49;;;;;;;9.52;3.15;;;9.90;97.30;;;;;;5061150;28;20032;-83
2023/05/24 03:03:15;;;;;;;5.07;2.38;;;9.80;97.30;;;;;;5074009;28;20380;-83
2023/05/24 03:05:41;;;;;;;9.30;3.45;;;9.80;97.40;;;;;;5072125;28;20115;-83
2023/05/24 03:08:07;;;;;;;9.23;3.40;;;9.80;97.50;;;;;;5058168;28;20396;-82
2023/05/24 03:10:33;;;;;;;10.63;3.35;;;9.80;97.60;;;;;;5056989;28;20039;-82
2023/05/24 03:12:58;;;;;;;11.35;3.83;;;9.80;97.60;;;;;;5062414;28;20033;-83
2023/05/24 03:15:24;;;;;;;8.70;2.78;;;9.80;97.60;;;;;;5052616;28;20083;-83
2023/05/24 03:17:50;;;;;;;10.20;3.55;;;9.80;97.70;;;;;;5085507;28;20503;-83
2023/05/24 03:20:16;;;;;;;7.68;3.25;;;9.80;97.70;;;;;;5062483;28;20140;-83
2023/05/24 03:22:42;;;;;;;8.48;3.53;;;9.80;97.80;;;;;;5050478;28;20450;-83
2023/05/24 03:25:08;;;;;;;11.18;3.17;;;9.80;97.80;;;;;;5069548;28;20434;-83
2023/05/24 03:27:35;;;;;;;9.27;3.65;;;9.80;97.90;;;;;;5077082;28;20037;-82
2023/05/24 03:30:01;;;;;;;9.32;3.70;;;9.80;97.90;;;;;;5041236;28;20153;-83
2023/05/24 03:32:26;;;;;;;8.40;3.03;;;9.80;98.00;;;;;;5062269;28;20496;-83
2023/05/24 03:34:52;;;;;;;7.60;3.35;;;9.70;98.00;;;;;;5073510;28;20032;-83
2023/05/24 03:37:17;;;;;;;11.30;3.67;;;9.70;98.10;;;;;;5049314;28;20469;-82
2023/05/24 03:39:43;;;;;;;6.68;3.00;;;9.70;98.20;;;;;;5047907;28;20045;-83
2023/05/24 03:42:09;;;;;;;9.85;3.42;;;9.70;98.20;;;;;;5072080;28;20788;-83
2023/05/24 03:44:34;;;;;;;7.88;4.00;;;9.70;98.30;;;;;;5059424;28;20025;-83
2023/05/24 03:47:00;;;;;;;9.40;3.40;;;9.70;98.30;;;;;;5072934;28;20025;-83
2023/05/24 03:49:26;;;;;;;6.15;2.92;;;9.70;98.40;;;;;;5073219;28;20024;-83
2023/05/24 03:51:52;;;;;;;7.47;3.03;;;9.70;98.40;;;;;;5054027;28;20125;-83
2023/05/24 03:54:17;;;;;;;9.18;3.40;;;9.70;98.40;;;;;;5033086;28;20032;-83
2023/05/24 03:56:43;;;;;;;6.97;3.42;;;9.70;98.40;;;;;;5086063;28;20068;-83
2023/05/24 03:59:09;;;;;;;10.25;3.17;;;9.70;98.40;;;;;;5057324;28;20040;-83
2023/05/24 04:01:37;;;;;;;9.32;3.78;;;9.70;98.40;;;;;;5074594;28;20028;-81
2023/05/24 04:04:03;;;;;;;9.60;3.53;;;9.70;98.40;;;;;;5074762;28;20035;-83
2023/05/24 04:06:29;;;;;;;6.97;3.55;;;9.70;98.50;;;;;;5085226;28;20020;-83
2023/05/24 04:08:56;;;;;;;9.48;3.85;;;9.70;98.50;;;;;;5099349;28;20051;-84
2023/05/24 04:11:22;;;;;;;7.07;3.40;;;9.70;98.60;;;;;;5081755;28;20029;-83
2023/05/24 04:13:51;;;;;;;10.18;3.80;;;9.70;98.60;;;;;;5078122;28;20020;-81
2023/05/24 04:16:20;;;;;;;10.00;4.07;;;9.80;98.70;;;;;;5083147;28;20345;-82
2023/05/24 04:18:47;;;;;;;9.00;4.18;;;9.80;98.80;;;;;;5075848;28;20389;-82
2023/05/24 04:21:12;;;;;;;12.65;4.13;;;9.80;98.80;;;;;;5040095;28;20515;-82
2023/05/24 04:23:38;;;;;;;9.25;3.53;;;9.80;98.80;;;;;;5053017;28;20047;-82
2023/05/24 04:26:04;;;;;;;10.32;3.88;;;9.80;98.80;;;;;;5052735;28;20427;-82
2023/05/24 04:28:30;;;;;;;9.90;3.92;;;9.80;98.80;;;;;;5054505;28;20037;-82
2023/05/24 04:30:56;;;;;;;10.38;3.83;;;9.90;98.90;;;;;;5061382;28;20487;-82
2023/05/24 04:33:22;;;;;;;9.70;3.85;;;9.90;99.00;;;;;;5046059;28;20124;-82
2023/05/24 04:35:48;;;;;;;10.10;4.13;;;9.90;99.00;;;;;;5055691;28;20024;-84
2023/05/24 04:38:13;;;;;;;8.57;3.88;;;9.90;99.00;;;;;;5063856;28;20381;-86
2023/05/24 04:40:39;;;;;;;11.15;3.67;;;10.00;99.10;;;;;;5045535;28;20037;-85
2023/05/24 04:43:06;;;;;;;8.35;3.60;;;10.00;99.10;;;;;;5059456;28;20029;-85
2023/05/24 04:45:32;;;;;;;9.00;4.22;;;10.00;99.10;;;;;;5067047;28;20032;-86
2023/05/24 04:47:58;;;;;;;9.38;3.85;;;10.00;99.20;;;;;;5060882;28;20033;-85
2023/05/24 04:50:24;;;;;;;6.60;4.03;;;10.10;99.20;;;;;;5067924;28;20033;-86
2023/05/24 04:52:50;;;;;;;9.52;3.53;;;10.10;99.30;;;;;;5042967;28;20025;-86
2023/05/24 04:55:16;;;;;;;14.70;4.28;;;10.10;99.60;;;;;;5082146;28;20028;-86
2023/05/24 04:57:44;;;;;;;8.60;3.80;;;10.20;99.40;;;;;;5058042;28;20037;-87
2023/05/24 05:00:11;;;;;;;9.00;3.75;;;10.20;99.40;;;;;;5065545;28;20028;-87
2023/05/24 05:02:37;;;;;;;7.72;3.67;;;10.30;99.40;;;;;;5065158;28;20044;-86
2023/05/24 05:05:03;;;;;;;7.95;3.60;;;10.30;99.40;;;;;;5076158;28;20024;-85
2023/05/24 05:07:28;;;;;;;7.78;4.00;;;10.30;99.50;;;;;;5057411;28;20386;-87
2023/05/24 05:09:54;;;;;;;13.57;4.28;;;10.30;99.60;;;;;;5065629;28;20100;-87
2023/05/24 05:12:20;;;;;;;9.82;3.42;;;10.40;99.70;;;;;;5065768;28;20026;-86
2023/05/24 05:14:46;;;;;;;7.60;3.83;;;10.50;99.70;;;;;;5067333;28;20087;-87
2023/05/24 05:17:12;;;;;;;12.70;3.90;;;10.50;99.80;;;;;;5050733;28;20096;-87
2023/05/24 05:19:39;;;;;;;8.38;4.05;;;10.60;99.80;;;;;;5083729;28;20045;-87
2023/05/24 05:22:05;;;;;;;11.18;4.22;;;10.60;99.90;;;;;;5064930;28;20116;-87
2023/05/24 05:24:30;;;;;;;12.90;4.50;;;10.70;99.90;;;;;;5080460;28;20033;-87
2023/05/24 05:26:56;;;;;;;11.50;4.20;;;10.80;99.90;;;;;;5076709;28;20033;-86
2023/05/24 05:29:22;;;;;;;13.90;4.43;;;10.80;99.90;;;;;;5076285;28;20118;-87
2023/05/24 05:31:47;;;;;;;12.02;4.78;;;10.90;99.90;;;;;;5057782;28;20458;-86
2023/05/24 05:34:13;;;;;;;11.07;5.03;;;10.90;99.90;;;;;;5080956;28;20084;-87
2023/05/24 05:36:39;;;;;;;10.52;4.60;;;11.00;99.90;;;;;;5059352;28;20431;-87
2023/05/24 05:39:08;;;;;;;10.05;4.53;;;11.00;99.90;;;;;;5092725;28;20048;-87
2023/05/24 05:41:38;;;;;;;10.77;4.28;;;11.10;99.90;;;;;;5083478;28;20028;-85
2023/05/24 05:44:04;;;;;;;14.05;4.65;;;11.20;99.90;;;;;;5088687;28;20017;-86
2023/05/24 05:46:30;;;;;;;13.70;4.40;;;11.30;99.90;;;;;;5082637;28;20031;-86
2023/05/24 05:48:55;;;;;;;17.08;4.68;;;11.40;99.90;;;;;;5112633;28;20035;-87
2023/05/24 05:51:21;;;;;;;18.05;4.88;;;11.60;99.90;;;;;;5074081;28;20534;-87
2023/05/24 05:53:47;;;;;;;8.90;4.00;;;11.60;99.90;;;;;;5054847;28;20131;-87
2023/05/24 05:56:12;;;;;;;12.88;4.38;;;11.70;99.90;;;;;;5062576;28;20033;-87
2023/05/24 05:58:41;;;;;;;17.05;4.30;;;11.80;99.90;;;;;;5066905;28;20560;-87
2023/05/24 06:01:06;;;;;;;14.93;4.88;;;11.90;99.90;;;;;;5069372;28;20427;-87
2023/05/24 06:03:32;;;;;;;12.30;5.38;;;11.90;99.90;;;;;;5070568;28;20016;-87
2023/05/24 06:05:58;;;;;;;16.73;4.68;;;11.90;99.90;;;;;;5048349;28;20495;-87
2023/05/24 06:08:23;;;;;;;11.23;4.57;;;12.00;99.90;;;;;;5053467;28;20040;-86
2023/05/24 06:10:49;;;;;;;10.18;4.18;;;12.00;99.90;;;;;;5067996;28;20129;-86
2023/05/24 06:13:15;;;;;;;18.70;5.30;;;12.00;99.90;;;;;;5059536;28;20475;-87
2023/05/24 06:15:40;;;;;;;13.02;4.93;;;12.00;99.90;;;;;;5075533;28;20021;-87
2023/05/24 06:18:06;;;;;;;15.32;5.10;;;12.10;99.90;;;;;;5076472;28;20067;-87
2023/05/24 06:20:32;;;;;;;13.93;4.70;;;12.10;99.90;;;;;;5075461;28;20077;-85
2023/05/24 06:22:58;;;;;;;13.60;4.90;;;12.20;99.90;;;;;;5076537;28;20024;-87
2023/05/24 06:25:26;;;;;;;15.30;4.38;;;12.20;99.90;;;;;;5056568;28;20512;-87
2023/05/24 06:27:52;;;;;;;9.32;3.58;;;12.30;99.90;;;;;;5072846;28;20028;-87
2023/05/24 06:30:17;;;;;;;19.60;4.85;;;12.40;99.90;;;;;;5058075;28;20032;-87
2023/05/24 06:32:43;;;;;;;12.95;4.32;;;12.50;99.80;;;;;;5068131;28;20111;-87
2023/05/24 06:35:09;;;;;;;12.45;4.90;;;12.60;99.60;;;;;;5070705;28;20029;-86
2023/05/24 06:37:35;;;;;;;14.15;5.45;;;12.60;99.50;;;;;;5073724;28;20033;-86
2023/05/24 06:40:01;;;;;;;12.00;4.22;;;12.70;99.60;;;;;;5073350;28;20020;-86
2023/05/24 06:42:26;;;;;;;18.75;4.40;;;12.80;99.50;;;;;;5069688;28;20024;-87
2023/05/24 06:44:52;;;;;;;16.45;5.00;;;12.80;99.30;;;;;;5073214;28;20173;-86
2023/05/24 06:47:20;;;;;;;18.10;5.55;;;12.80;99.20;;;;;;5075776;28;20111;-86
2023/05/24 06:49:48;;;;;;;16.23;5.22;;;12.80;99.10;;;;;;5074848;28;20021;-87
2023/05/24 06:52:14;;;;;;;15.07;4.63;;;12.80;99.00;;;;;;5075132;28;20032;-86
2023/05/24 06:54:42;;;;;;;14.50;5.13;;;12.80;98.90;;;;;;5074552;28;20040;-87
2023/05/24 06:57:08;;;;;;;17.60;5.00;;;12.80;98.90;;;;;;5075041;28;20414;-86
2023/05/24 06:59:37;;;;;;;13.68;4.57;;;12.90;98.90;;;;;;5075026;28;20036;-86
2023/05/24 07:02:03;;;;;;;13.60;4.28;;;12.90;98.80;;;;;;5075555;28;20028;-86
2023/05/24 07:04:29;;;;;;;15.52;4.85;;;13.00;98.80;;;;;;5075229;28;20031;-86
2023/05/24 07:06:54;;;;;;;14.90;4.40;;;13.10;98.70;;;;;;5074642;28;20025;-87
2023/05/24 07:09:20;;;;;;;13.98;4.38;;;13.10;98.60;;;;;;5067667;28;20116;-87
2023/05/24 07:11:46;;;;;;;13.02;4.20;;;13.10;98.50;;;;;;5065739;28;20028;-86
2023/05/24 07:14:12;;;;;;;17.55;5.60;;;13.20;98.50;;;;;;5074431;28;20036;-86
2023/05/24 07:16:38;;;;;;;11.35;4.65;;;13.20;98.50;;;;;;5079250;28;20055;-86
2023/05/24 07:19:09;;;;;;;15.25;4.25;;;13.30;98.50;;;;;;5062987;28;20028;-87
2023/05/24 07:21:34;;;;;;;;;;;13.40;98.50;;;;;;5071367;28;20144;-87
2023/05/24 07:24:02;;;;;;;13.70;4.88;;;13.50;98.40;;;;;;5082474;28;19904;-87
2023/05/24 07:26:32;;;;;;;12.88;4.25;;;13.50;98.20;;;;;;5075181;28;20029;-86
2023/05/24 07:28:57;;;;;;;10.57;4.20;;;13.50;98.10;;;;;;5074693;28;20028;-85
2023/05/24 07:31:23;;;;;;;14.35;4.65;;;13.50;98.00;;;;;;5074587;28;20025;-87
2023/05/24 07:33:49;;;;;;;11.95;4.18;;;13.60;98.00;;;;;;5073853;28;20032;-85
2023/05/24 07:36:14;;;;;;;14.65;4.90;;;13.60;97.90;;;;;;5074296;28;20103;-86
2023/05/24 07:38:40;;;;;;;10.85;4.32;;;13.60;97.80;;;;;;5073717;28;20039;-85
2023/05/24 07:41:06;;;;;;;12.57;4.13;;;13.60;97.80;;;;;;5056268;28;20489;-85
2023/05/24 07:43:34;;;;;;;14.45;4.40;;;13.70;97.80;;;;;;5063708;28;20369;-85
2023/05/24 07:46:00;;;;;;;11.65;3.53;;;13.60;97.70;;;;;;5053804;28;20488;-86
2023/05/24 07:48:25;;;;;;;12.82;4.35;;;13.60;97.70;;;;;;5054141;28;20040;-86
2023/05/24 07:50:51;;;;;;;11.38;3.83;;;13.70;97.70;;;;;;5054885;28;20017;-84
2023/05/24 07:53:18;;;;;;;14.73;4.30;;;13.80;97.60;;;;;;5087107;28;20025;-85
2023/05/24 07:55:44;;;;;;;15.52;4.65;;;13.80;97.40;;;;;;5072657;28;20100;-84
2023/05/24 07:58:10;;;;;;;12.75;4.80;;;13.80;97.10;;;;;;5074178;28;20147;-86
2023/05/24 08:00:36;;;;;;;14.20;4.13;;;13.90;97.10;;;;;;5074826;28;20091;-85
2023/05/24 08:03:04;;;;;;;11.75;3.88;;;14.00;96.90;;;;;;5073533;28;20052;-85
2023/05/24 08:05:30;;;;;;;10.88;3.67;;;14.10;96.70;;;;;;5071011;28;20025;-85
2023/05/24 08:07:56;;;;;;;14.68;4.45;;;14.20;96.60;;;;;;5073464;28;20048;-85
2023/05/24 08:10:22;;;;;;;11.98;4.20;;;14.30;96.10;;;;;;5060752;28;20094;-85
2023/05/24 08:12:50;;;;;;;9.00;3.70;;;14.50;96.00;;;;;;5056745;28;20054;-86
2023/05/24 08:15:16;;;;;;;10.52;3.38;;;14.60;95.80;;;;;;5073512;28;20486;-85
2023/05/24 08:17:42;;;;;;;10.50;3.53;;;14.60;95.90;;;;;;5073315;28;20028;-85
2023/05/24 08:20:14;;;;;;;13.05;3.80;;;14.70;95.30;;;;;;5072584;28;20031;-86
2023/05/24 08:22:41;;;;;;;10.57;3.55;;;14.70;94.90;;;;;;5057093;28;20054;-86
2023/05/24 08:25:07;;;;;;;13.68;4.20;;;14.70;94.70;;;;;;5073943;28;20357;-85
2023/05/24 08:27:33;;;;;;;9.38;3.47;;;14.60;94.40;;;;;;5073083;28;20020;-85
2023/05/24 08:29:59;;;;;;;12.73;4.00;;;14.50;94.30;;;;;;5073044;28;20023;-86
2023/05/24 08:32:25;;;;;;;10.35;3.63;;;14.60;94.20;;;;;;5056693;28;20025;-86
2023/05/24 08:34:51;;;;;;;7.60;3.38;;;14.60;94.10;;;;;;5072343;28;20364;-86
2023/05/24 08:37:19;;;;;;;11.45;3.80;;;14.60;94.10;;;;;;5072746;28;20027;-86
2023/05/24 08:39:45;;;;;;;12.98;4.10;;;14.60;93.90;;;;;;5073457;28;20025;-85
2023/05/24 08:42:14;;;;;;;9.43;3.50;;;14.60;93.80;;;;;;5073855;28;20376;-84
2023/05/24 08:44:57;;;;;;;9.40;3.40;;;14.50;93.80;;;;;;5072019;28;20031;-86
2023/05/24 08:47:24;;;;;;;8.23;3.03;;;14.50;93.70;;;;;;5056617;28;20082;-86
2023/05/24 08:49:51;;;;;;;8.30;2.83;;;14.50;93.90;;;;;;5069026;28;20031;-85
2023/05/24 08:52:18;;;;;;;9.30;3.33;;;14.60;94.00;;;;;;5060131;28;20033;-86
2023/05/24 08:54:45;;;;;;;14.73;3.88;;;14.60;94.10;;;;;;5067729;28;20033;-86
2023/05/24 08:57:10;;;;;;;11.55;3.60;;;14.70;94.00;;;;;;5066595;28;20013;-86
2023/05/24 08:59:39;;;;;;;8.85;3.30;;;14.80;94.00;;;;;;5079189;28;20048;-84
2023/05/24 09:02:07;;;;;;;7.72;3.22;;;14.90;94.10;;;;;;5086615;28;20013;-85
2023/05/24 09:04:35;;;;;;;7.97;2.60;;;15.10;94.10;;;;;;5088819;28;20048;-87
2023/05/24 09:07:01;;;;;;;10.60;3.40;;;15.20;93.90;;;;;;5057438;28;20025;-86
2023/05/24 09:09:27;;;;;;;12.02;3.05;;;15.30;93.40;;;;;;5061187;28;20060;-87
2023/05/24 09:12:01;;;;;;;12.68;3.47;;;15.30;93.20;;;;;;5085395;28;20429;-87
2023/05/24 09:14:29;;;;;;;7.95;3.00;;;15.30;92.70;;;;;;5062928;28;20043;-87
2023/05/24 09:16:55;;;;;;;9.20;3.28;;;15.30;92.50;;;;;;5062990;28;20044;-87
2023/05/24 09:19:22;;;;;;;10.60;3.08;;;15.30;92.30;;;;;;5075815;28;20078;-86
2023/05/24 09:21:52;;;;;;;8.95;3.13;;;15.20;92.30;;;;;;5061006;28;20045;-87
2023/05/24 09:24:17;;;;;;;8.15;3.10;;;15.30;92.40;;;;;;5088897;28;20032;-86
2023/05/24 09:26:43;;;;;;;6.28;2.78;;;15.30;92.40;;;;;;5087913;28;20107;-88
2023/05/24 09:29:09;;;;;;;8.32;2.65;;;15.40;92.50;;;;;;5069862;28;20146;-87
2023/05/24 09:31:38;;;;;;;7.43;2.75;;;15.40;92.60;;;;;;5055399;28;20119;-86
2023/05/24 09:34:10;;;;;;;6.65;2.58;;;15.50;92.70;;;;;;5068615;28;20543;-87
2023/05/24 09:36:41;;;;;;;9.05;2.90;;;15.60;92.70;;;;;;5057612;28;20021;-86
2023/05/24 09:39:10;;;;;;;9.30;3.25;;;15.70;92.60;;;;;;5073385;28;20050;-86
2023/05/24 09:41:37;;;;;;;7.00;2.75;;;15.70;92.40;;;;;;5055464;28;20032;-86
2023/05/24 09:44:04;;;;;;;11.23;3.47;;;15.80;92.30;;;;;;5073099;28;20104;-86
2023/05/24 09:46:35;;;;;;;8.00;2.95;;;15.70;91.80;;;;;;5048300;28;20029;-87
2023/05/24 09:49:05;;;;;;;9.40;3.08;;;15.70;91.60;;;;;;5075960;28;20028;-86
2023/05/24 09:51:33;;;;;;;6.93;2.70;;;15.70;91.50;;;;;;5076369;28;20020;-86
2023/05/24 09:54:02;;;;;;;8.00;3.08;;;15.70;91.60;;;;;;5075957;28;20024;-86
2023/05/24 09:56:29;;;;;;;8.63;3.00;;;15.70;91.40;;;;;;5075951;28;20024;-86
2023/05/24 09:58:55;;;;;;;8.55;2.70;;;15.70;91.10;;;;;;5058935;28;20106;-86
2023/05/24 10:01:26;;;;;;;7.93;2.97;;;15.70;91.20;;;;;;5077266;28;20059;-86
2023/05/24 10:03:56;;;;;;;;;;;15.70;91.40;;;;;;5060331;28;20429;-86
2023/05/24 10:06:22;;;;;;;7.82;3.30;;;15.70;91.30;;;;;;5075794;28;19912;-86
2023/05/24 10:08:50;;;;;;;9.90;3.40;;;15.70;91.10;;;;;;5075880;28;20020;-86
2023/05/24 10:11:17;;;;;;;9.05;3.20;;;15.70;91.10;;;;;;5075513;28;20031;-85
2023/05/24 10:13:43;;;;;;;10.02;2.92;;;15.70;91.00;;;;;;5076812;28;20040;-86
2023/05/24 10:16:09;;;;;;;7.55;2.42;;;15.80;90.90;;;;;;5073346;28;20032;-86
2023/05/24 10:18:35;;;;;;;8.45;3.08;;;15.70;90.70;;;;;;5075727;28;20033;-86
2023/05/24 10:21:06;;;;;;;8.43;3.10;;;15.70;90.70;;;;;;5058243;28;20492;-86
2023/05/24 10:23:35;;;;;;;11.48;3.00;;;15.70;90.70;;;;;;5060812;28;20033;-85
2023/05/24 10:26:10;;;;;;;6.68;2.65;;;15.80;90.80;;;;;;5039405;28;20084;-87
2023/05/24 10:28:51;;;;;;;5.60;2.72;;;15.80;90.90;;;;;;5055777;28;20025;-86
2023/05/24 10:31:30;;;;;;;11.55;3.15;;;15.80;90.80;;;;;;5056760;28;20470;-86
2023/05/24 10:34:01;;;;;;;8.50;3.53;;;15.80;90.50;;;;;;5055894;28;20032;-87
2023/05/24 10:36:26;;;;;;;;;;;15.70;90.40;;;;;;5065706;28;20008;-85
2023/05/24 10:38:53;;;;;;;7.82;3.10;;;15.70;90.60;;;;;;5091100;28;19901;-86
2023/05/24 10:41:19;;;;;;;7.18;2.80;;;15.70;90.50;;;;;;5083714;28;20033;-86
2023/05/24 10:43:46;;;;;;;8.20;2.63;;;15.70;90.30;;;;;;5085448;28;20060;-86
2023/05/24 10:46:15;;;;;;;9.02;3.03;;;15.80;90.50;;;;;;5071633;28;20457;-86
2023/05/24 10:48:41;;;;;;;6.72;2.55;;;15.80;90.20;;;;;;5075066;28;20021;-86
2023/05/24 10:51:32;;;;;;;9.50;3.13;;;15.80;90.20;;;;;;5074159;28;20078;-86
2023/05/24 10:54:16;;;;;;;8.98;3.00;;;15.80;90.30;;;;;;5055637;28;20029;-86
2023/05/24 10:56:48;;;;;;;6.45;2.72;;;15.90;90.40;;;;;;5055073;28;20024;-86
2023/05/24 10:59:33;;;;;;;6.40;2.45;;;16.00;90.10;;;;;;5053910;28;20033;-86
2023/05/24 11:02:00;;;;;;;8.60;2.72;;;16.00;90.10;;;;;;5072015;28;20380;-85
2023/05/24 11:04:30;;;;;;;8.80;3.25;;;16.10;90.20;;;;;;5057145;28;20475;-85
2023/05/24 11:07:04;;;;;;;8.07;2.57;;;16.20;90.10;;;;;;5054859;28;20017;-86
2023/05/24 11:09:31;;;;;;;7.20;2.75;;;16.30;90.00;;;;;;5057659;28;20267;-86
2023/05/24 11:12:06;;;;;;;5.25;2.60;;;16.40;90.20;;;;;;5074693;28;20368;-86
2023/05/24 11:14:38;;;;;;;5.80;2.70;;;16.50;90.40;;;;;;5074647;28;20469;-86
2023/05/24 11:17:05;;;;;;;8.88;3.03;;;16.60;90.00;;;;;;5054441;28;20023;-86
2023/05/24 11:19:36;;;;;;;6.40;2.60;;;16.70;89.80;;;;;;5054834;28;20037;-87
2023/05/24 11:22:06;;;;;;;7.18;2.63;;;16.70;90.10;;;;;;5054039;28;20045;-85
2023/05/24 11:24:32;;;;;;;7.75;2.90;;;16.70;89.90;;;;;;5069236;28;20369;-87
2023/05/24 11:27:00;;;;;;;6.63;2.30;;;16.80;90.20;;;;;;5075288;28;20052;-87
2023/05/24 11:29:27;;;;;;;8.48;3.00;;;16.90;90.30;;;;;;5074125;28;20024;-86
2023/05/24 11:32:03;;;;;;;9.65;3.20;;;17.00;89.80;;;;;;5075601;28;20107;-89
2023/05/24 11:34:30;;;;;;;7.88;3.00;;;16.90;88.70;;;;;;5075105;28;20008;-85
2023/05/24 11:37:00;;;;;;;6.32;2.88;;;16.90;88.70;;;;;;5074083;28;20081;-86
2023/05/24 11:39:51;;;;;;;7.68;2.92;;;16.90;88.50;;;;;;5069912;28;20064;-85
2023/05/24 11:42:46;;;;;;;;;;;;;;;;;;;;;
2023/05/24 11:45:15;;;;;;;8.55;2.97;;;16.80;88.60;;;;;;5075129;28;20020;-86
2023/05/24 11:47:41;;;;;;;8.98;2.55;;;16.80;89.20;;;;;;5074082;28;20024;-86
2023/05/24 11:50:07;;;;;;;8.75;3.13;;;16.90;89.50;;;;;;5058501;28;20031;-85
2023/05/24 11:52:40;;;;;;;9.73;3.20;;;17.00;89.50;;;;;;5053871;28;20128;-85
2023/05/24 11:55:31;;;;;;;6.03;2.53;;;17.10;88.80;;;;;;5069554;28;20037;-85
2023/05/24 11:58:05;;;;;;;8.57;3.30;;;17.10;88.60;;;;;;5082654;28;20064;-85
2023/05/24 12:00:36;;;;;;;7.75;2.85;;;17.10;87.60;;;;;;5070671;28;20099;-85
2023/05/24 12:03:06;;;;;;;7.50;2.97;;;17.10;87.60;;;;;;5050992;28;20033;-85
2023/05/24 12:05:39;;;;;;;8.88;2.70;;;17.00;87.40;;;;;;5057550;28;20035;-86
2023/05/24 12:08:08;;;;;;;7.47;2.70;;;17.10;87.30;;;;;;5059014;28;20121;-86
2023/05/24 12:10:41;;;;;;;7.55;2.85;;;17.10;87.30;;;;;;5053770;28;20071;-85
2023/05/24 12:13:31;;;;;;;7.97;3.17;;;17.10;87.70;;;;;;5063611;28;20029;-86
2023/05/24 12:15:57;;;;;;;6.40;2.67;;;17.10;87.60;;;;;;5074399;28;20381;-86
2023/05/24 12:18:27;;;;;;;7.13;2.60;;;17.20;88.00;;;;;;5057378;28;20036;-86
2023/05/24 12:20:53;;;;;;;5.80;2.65;;;17.30;88.30;;;;;;5074368;28;20146;-86
2023/05/24 12:23:22;;;;;;;8.82;3.30;;;17.40;88.40;;;;;;5076806;28;20044;-87
2023/05/24 12:25:48;;;;;;;7.70;2.80;;;17.40;87.50;;;;;;5094848;28;20005;-88
2023/05/24 12:28:15;;;;;;;6.45;2.75;;;17.40;87.00;;;;;;5094405;28;20043;-87
2023/05/24 12:30:43;;;;;;;8.95;3.05;;;17.40;87.10;;;;;;5078473;28;20015;-85
2023/05/24 12:33:10;;;;;;;6.57;3.20;;;17.40;87.40;;;;;;5082873;28;20033;-84
2023/05/24 12:35:41;;;;;;;7.70;2.90;;;17.40;86.40;;;;;;5073720;28;20444;-87
2023/05/24 12:38:10;;;;;;;6.95;2.53;;;17.50;86.50;;;;;;5074233;28;20041;-89
2023/05/24 12:40:36;;;;;;;9.15;2.97;;;17.50;86.10;;;;;;5073438;28;20418;-87
2023/05/24 12:43:03;;;;;;;5.97;2.50;;;17.40;86.00;;;;;;5071291;28;20020;-87
2023/05/24 12:45:37;;;;;;;10.05;2.95;;;17.50;86.40;;;;;;5052605;28;20120;-86
2023/05/24 12:48:03;;;;;;;10.07;3.80;;;17.60;86.20;;;;;;5062368;28;20029;-87
2023/05/24 12:50:30;;;;;;;8.90;3.00;;;17.50;85.80;;;;;;5072516;28;20107;-87